Time;durP1;ratioP1;P1;durP2;ratioP2;P2;SDS_P1;SDS_P2;PMS_P1;PMS_P2;Temp;Humidity;BMP_temperature;BMP_pressure;BME280_temperature;BME280_humidity;BME280_pressure;Samples;Min_cycle;Max_cycle;Signal;HPM_P1;HPM_P2
2021/03/07 00:02:03;;;;;;;9.45;5.32;;;1.10;52.00;;;;;;5053874;28;20028;-74
2021/03/07 00:04:29;;;;;;;10.75;6.00;;;1.10;52.00;;;;;;5056616;28;20021;-73
2021/03/07 00:06:54;;;;;;;9.10;5.43;;;1.10;52.20;;;;;;5058475;28;20033;-72
2021/03/07 00:09:20;;;;;;;9.18;5.60;;;1.20;52.30;;;;;;5054642;28;20032;-72
2021/03/07 00:11:45;;;;;;;10.85;5.95;;;1.20;52.20;;;;;;5055599;28;20076;-73
2021/03/07 00:14:11;;;;;;;11.02;6.00;;;1.30;52.30;;;;;;5041426;28;20045;-73
2021/03/07 00:16:36;;;;;;;10.02;6.20;;;1.20;52.30;;;;;;5052935;28;20501;-74
2021/03/07 00:19:02;;;;;;;9.80;6.25;;;1.20;52.40;;;;;;5057170;28;20478;-72
2021/03/07 00:21:28;;;;;;;11.55;6.07;;;1.10;52.60;;;;;;5059893;28;20507;-73
2021/03/07 00:23:54;;;;;;;10.65;6.35;;;1.20;52.60;;;;;;5042624;28;20025;-72
2021/03/07 00:26:20;;;;;;;10.00;6.10;;;1.20;52.60;;;;;;5060615;28;20492;-72
2021/03/07 00:28:45;;;;;;;12.68;6.93;;;1.20;52.60;;;;;;5061425;28;20103;-72
2021/03/07 00:31:11;;;;;;;15.25;7.90;;;1.20;52.60;;;;;;5039827;28;20036;-73
2021/03/07 00:33:36;;;;;;;13.10;7.13;;;1.10;52.80;;;;;;5058363;28;20021;-72
2021/03/07 00:36:02;;;;;;;11.88;6.75;;;1.00;52.90;;;;;;5058693;28;20025;-73
2021/03/07 00:38:28;;;;;;;16.75;8.93;;;0.90;53.20;;;;;;5058840;28;20040;-74
2021/03/07 00:40:53;;;;;;;17.15;10.13;;;0.90;53.40;;;;;;5057777;28;20037;-73
2021/03/07 00:43:20;;;;;;;17.55;10.10;;;0.80;53.70;;;;;;5058424;28;20025;-73
2021/03/07 00:45:49;;;;;;;18.25;9.32;;;0.70;54.20;;;;;;5060711;28;20028;-73
2021/03/07 00:48:14;;;;;;;15.20;8.32;;;0.70;54.50;;;;;;5061143;28;20615;-73
2021/03/07 00:50:40;;;;;;;20.95;8.50;;;0.70;54.80;;;;;;5060028;28;20032;-74
2021/03/07 00:53:05;;;;;;;14.82;8.75;;;0.60;54.90;;;;;;5060664;28;20029;-73
2021/03/07 00:55:31;;;;;;;11.48;6.60;;;0.60;55.00;;;;;;5042978;28;20448;-74
2021/03/07 00:57:56;;;;;;;11.85;7.57;;;0.40;55.20;;;;;;5061179;28;20100;-73
2021/03/07 01:00:25;;;;;;;13.90;7.13;;;0.40;55.60;;;;;;5067740;28;20025;-75
2021/03/07 01:02:51;;;;;;;12.68;6.60;;;0.30;56.00;;;;;;5061548;28;20082;-72
2021/03/07 01:05:16;;;;;;;14.07;7.95;;;0.40;56.20;;;;;;5058240;28;20473;-73
2021/03/07 01:07:42;;;;;;;11.57;6.88;;;0.40;56.50;;;;;;5059503;28;20029;-73
2021/03/07 01:10:11;;;;;;;14.13;7.95;;;0.30;56.70;;;;;;5058845;28;20111;-73
2021/03/07 01:12:36;;;;;;;14.18;8.00;;;0.20;57.00;;;;;;5059202;28;20044;-72
2021/03/07 01:15:03;;;;;;;15.38;8.95;;;0.30;57.10;;;;;;5061029;28;20104;-73
2021/03/07 01:17:28;;;;;;;17.42;9.15;;;0.30;57.20;;;;;;5062052;28;20029;-73
2021/03/07 01:19:54;;;;;;;16.73;9.00;;;0.40;57.10;;;;;;5044158;28;20035;-73
2021/03/07 01:22:19;;;;;;;17.77;9.57;;;0.40;57.00;;;;;;5045067;28;20046;-73
2021/03/07 01:24:45;;;;;;;20.88;11.00;;;0.40;56.90;;;;;;5044067;28;20032;-73
2021/03/07 01:27:10;;;;;;;18.15;11.35;;;0.20;57.20;;;;;;5062983;28;20052;-73
2021/03/07 01:29:36;;;;;;;17.95;9.95;;;0.20;57.40;;;;;;5071136;28;20079;-73
2021/03/07 01:32:01;;;;;;;14.40;9.07;;;0.10;57.80;;;;;;5073445;28;20029;-73
2021/03/07 01:34:27;;;;;;;16.02;8.98;;;0.10;58.10;;;;;;5055319;28;20025;-72
2021/03/07 01:36:52;;;;;;;15.13;7.60;;;0.10;58.90;;;;;;5073275;28;20033;-73
2021/03/07 01:39:18;;;;;;;16.02;8.98;;;0.20;58.10;;;;;;5073749;28;20029;-73
2021/03/07 01:41:43;;;;;;;13.82;8.32;;;0.30;58.00;;;;;;5073497;28;20137;-73
2021/03/07 01:44:09;;;;;;;14.88;8.00;;;0.30;57.80;;;;;;5072957;28;20040;-73
2021/03/07 01:46:35;;;;;;;12.73;7.60;;;0.40;57.60;;;;;;5073424;28;20029;-73
2021/03/07 01:49:00;;;;;;;12.65;7.90;;;0.50;57.50;;;;;;5073735;28;20021;-74
2021/03/07 01:51:26;;;;;;;17.08;9.50;;;0.50;57.30;;;;;;5073138;28;20045;-73
2021/03/07 01:53:51;;;;;;;13.80;8.48;;;0.30;57.40;;;;;;5073899;28;20381;-73
2021/03/07 01:56:18;;;;;;;17.20;8.32;;;0.40;57.60;;;;;;5073363;28;20092;-73
2021/03/07 01:58:46;;;;;;;13.13;7.93;;;0.40;57.70;;;;;;5072450;28;20049;-73
2021/03/07 02:01:12;;;;;;;10.82;7.68;;;0.40;57.60;;;;;;5073240;28;20036;-73
2021/03/07 02:03:52;;;;;;;15.18;8.63;;;0.40;57.80;;;;;;5073514;28;20044;-73
2021/03/07 02:06:18;;;;;;;12.20;8.07;;;0.40;57.60;;;;;;5056259;28;20421;-73
2021/03/07 02:08:44;;;;;;;13.35;7.70;;;0.40;57.60;;;;;;5073998;28;20017;-73
2021/03/07 02:11:10;;;;;;;12.90;8.13;;;0.40;57.60;;;;;;5071519;28;20037;-73
2021/03/07 02:13:38;;;;;;;16.13;9.18;;;0.30;57.90;;;;;;5050576;28;20055;-73
2021/03/07 02:16:08;;;;;;;16.85;8.90;;;0.20;58.20;;;;;;5068620;28;20025;-73
2021/03/07 02:18:36;;;;;;;13.43;7.88;;;0.10;58.50;;;;;;5062583;28;20032;-73
2021/03/07 02:21:08;;;;;;;11.85;7.43;;;0.20;59.10;;;;;;5062063;28;20021;-73
2021/03/07 02:23:46;;;;;;;13.93;7.88;;;0.20;59.30;;;;;;5070920;28;20081;-73
2021/03/07 02:26:12;;;;;;;11.63;7.53;;;0.20;59.30;;;;;;5068615;28;20104;-73
2021/03/07 02:28:38;;;;;;;13.15;7.88;;;0.20;59.30;;;;;;5068802;28;20059;-73
2021/03/07 02:31:03;;;;;;;13.07;7.50;;;0.30;59.30;;;;;;5069260;28;20033;-73
2021/03/07 02:33:38;;;;;;;11.65;7.65;;;0.20;59.20;;;;;;5070249;28;20029;-73
2021/03/07 02:36:20;;;;;;;12.23;7.22;;;0.20;59.40;;;;;;5070480;28;20024;-73
2021/03/07 02:38:48;;;;;;;12.52;7.60;;;0.10;59.70;;;;;;5048971;28;20395;-73
2021/03/07 02:41:17;;;;;;;14.02;8.35;;;0.10;60.20;;;;;;5064680;28;20025;-73
2021/03/07 02:43:48;;;;;;;12.48;7.32;;;0.10;60.50;;;;;;5064413;28;20462;-72
2021/03/07 02:46:15;;;;;;;13.02;8.05;;;0.10;60.80;;;;;;5064961;28;20088;-73
2021/03/07 02:48:44;;;;;;;14.55;8.40;;;0.10;60.80;;;;;;5064620;28;20017;-73
2021/03/07 02:51:11;;;;;;;13.05;7.82;;;0.00;60.80;;;;;;5064493;28;20036;-74
2021/03/07 02:53:38;;;;;;;12.57;7.68;;;0.10;60.90;;;;;;5065281;28;20052;-74
2021/03/07 02:56:10;;;;;;;17.45;9.18;;;0.00;61.00;;;;;;5063856;28;20021;-73
2021/03/07 02:58:37;;;;;;;11.80;7.13;;;0.00;61.10;;;;;;5063617;28;20036;-72
2021/03/07 03:01:05;;;;;;;13.43;7.63;;;-0.10;61.30;;;;;;5063124;28;20025;-74
2021/03/07 03:03:57;;;;;;;13.80;7.15;;;0.00;61.50;;;;;;5064402;28;20081;-73
2021/03/07 03:06:23;;;;;;;12.80;7.07;;;0.10;61.60;;;;;;5045157;28;20055;-73
2021/03/07 03:08:55;;;;;;;12.05;7.35;;;0.10;61.50;;;;;;5066635;28;20063;-73
2021/03/07 03:11:24;;;;;;;12.52;7.45;;;0.30;61.40;;;;;;5065005;28;20036;-74
2021/03/07 03:13:52;;;;;;;11.30;6.90;;;0.20;61.10;;;;;;5065631;28;20067;-72
2021/03/07 03:16:22;;;;;;;13.27;7.70;;;0.20;61.00;;;;;;5066465;28;20493;-73
2021/03/07 03:18:48;;;;;;;12.13;7.35;;;0.30;61.10;;;;;;5067045;28;20105;-72
2021/03/07 03:21:14;;;;;;;12.20;6.93;;;0.30;61.00;;;;;;5067941;28;20029;-73
2021/03/07 03:23:41;;;;;;;14.27;8.00;;;0.40;61.00;;;;;;5068409;28;20044;-72
2021/03/07 03:26:08;;;;;;;13.05;8.20;;;0.40;61.00;;;;;;5069465;28;20028;-72
2021/03/07 03:28:34;;;;;;;14.88;9.02;;;0.50;61.20;;;;;;5070027;28;20029;-73
2021/03/07 03:31:00;;;;;;;13.38;8.38;;;0.60;61.50;;;;;;5051364;28;20037;-72
2021/03/07 03:33:27;;;;;;;14.77;8.98;;;0.70;61.50;;;;;;5052076;28;20032;-72
2021/03/07 03:35:53;;;;;;;15.75;9.10;;;0.70;61.30;;;;;;5053635;28;20025;-72
2021/03/07 03:38:21;;;;;;;16.83;9.05;;;0.50;61.70;;;;;;5070261;28;20060;-72
2021/03/07 03:40:51;;;;;;;13.52;8.52;;;0.50;62.20;;;;;;5050684;28;20040;-72
2021/03/07 03:43:20;;;;;;;17.73;9.77;;;0.60;62.30;;;;;;5049825;28;20543;-72
2021/03/07 03:45:47;;;;;;;12.05;7.10;;;0.70;61.90;;;;;;5050378;28;20088;-73
2021/03/07 03:48:17;;;;;;;12.45;7.28;;;0.70;60.90;;;;;;5068263;28;20082;-73
2021/03/07 03:50:44;;;;;;;12.05;7.85;;;0.70;60.40;;;;;;5060149;28;20086;-73
2021/03/07 03:53:17;;;;;;;20.15;9.68;;;0.70;60.40;;;;;;5063507;28;20055;-73
2021/03/07 03:55:50;;;;;;;17.27;8.60;;;0.70;60.80;;;;;;5063783;28;20497;-74
2021/03/07 03:58:19;;;;;;;12.75;8.00;;;0.70;61.00;;;;;;5066685;28;20017;-73
2021/03/07 04:00:45;;;;;;;13.88;8.07;;;0.80;60.80;;;;;;5068713;28;20021;-74
2021/03/07 04:03:13;;;;;;;16.38;8.45;;;0.80;60.80;;;;;;5068233;28;20416;-72
2021/03/07 04:05:43;;;;;;;12.90;7.68;;;0.80;61.00;;;;;;5068013;28;20032;-72
2021/03/07 04:08:08;;;;;;;15.25;8.80;;;0.90;61.40;;;;;;5067778;28;20029;-72
2021/03/07 04:10:36;;;;;;;12.88;8.73;;;1.00;61.50;;;;;;5066492;28;20027;-72
2021/03/07 04:13:02;;;;;;;14.38;8.25;;;1.00;61.20;;;;;;5066379;28;20139;-72
2021/03/07 04:15:29;;;;;;;16.17;8.63;;;1.00;61.00;;;;;;5069602;28;20105;-72
2021/03/07 04:17:57;;;;;;;14.90;8.52;;;1.10;61.10;;;;;;5069518;28;20021;-72
2021/03/07 04:20:26;;;;;;;15.35;9.73;;;1.10;61.20;;;;;;5068805;28;20021;-72
2021/03/07 04:22:51;;;;;;;18.40;9.45;;;1.10;61.20;;;;;;5068621;28;20032;-73
2021/03/07 04:25:17;;;;;;;13.88;9.15;;;1.30;61.60;;;;;;5069382;28;20032;-73
2021/03/07 04:27:44;;;;;;;17.98;10.70;;;1.30;62.00;;;;;;5069233;28;20040;-73
2021/03/07 04:30:10;;;;;;;14.50;9.77;;;1.20;63.10;;;;;;5068457;28;20119;-73
2021/03/07 04:32:36;;;;;;;19.77;10.50;;;1.20;64.40;;;;;;5049362;28;20022;-73
2021/03/07 04:35:04;;;;;;;14.82;9.27;;;1.20;64.40;;;;;;5068586;28;20051;-73
2021/03/07 04:37:30;;;;;;;13.98;8.80;;;1.30;63.50;;;;;;5066392;28;20040;-73
2021/03/07 04:39:56;;;;;;;17.13;9.48;;;1.30;62.60;;;;;;5066178;28;20021;-73
2021/03/07 04:42:22;;;;;;;15.10;9.57;;;1.30;62.40;;;;;;5066662;28;20068;-73
2021/03/07 04:44:48;;;;;;;15.98;9.48;;;1.30;62.50;;;;;;5066862;28;20021;-74
2021/03/07 04:47:14;;;;;;;15.30;9.35;;;1.40;62.70;;;;;;5066824;28;20044;-73
2021/03/07 04:49:40;;;;;;;17.20;10.55;;;1.40;62.80;;;;;;5066636;28;20032;-73
2021/03/07 04:52:06;;;;;;;18.23;10.55;;;1.40;63.00;;;;;;5068638;28;20030;-73
2021/03/07 04:54:31;;;;;;;16.30;10.20;;;1.30;63.30;;;;;;5065982;28;20052;-73
2021/03/07 04:56:57;;;;;;;17.40;10.68;;;1.20;64.20;;;;;;5067170;28;20044;-73
2021/03/07 04:59:23;;;;;;;19.90;10.65;;;1.30;65.00;;;;;;5067584;28;20036;-73
2021/03/07 05:01:48;;;;;;;17.23;10.68;;;1.30;65.10;;;;;;5067910;28;20029;-73
2021/03/07 05:04:14;;;;;;;18.40;10.38;;;1.30;65.30;;;;;;5068515;28;20051;-73
2021/03/07 05:06:41;;;;;;;18.38;10.70;;;1.40;64.10;;;;;;5069785;28;20473;-73
2021/03/07 05:09:08;;;;;;;18.80;10.85;;;1.30;64.00;;;;;;5069931;28;20036;-72
2021/03/07 05:11:34;;;;;;;15.60;9.90;;;1.30;63.80;;;;;;5067617;28;20474;-72
2021/03/07 05:14:00;;;;;;;17.38;10.23;;;1.30;63.60;;;;;;5067836;28;20055;-72
2021/03/07 05:16:28;;;;;;;16.98;9.77;;;1.20;63.40;;;;;;5066360;28;20025;-73
2021/03/07 05:18:53;;;;;;;20.20;9.90;;;1.30;63.60;;;;;;5049174;28;20033;-73
2021/03/07 05:21:19;;;;;;;15.02;9.55;;;1.30;63.60;;;;;;5068285;28;20093;-73
2021/03/07 05:23:44;;;;;;;14.82;9.57;;;1.40;63.70;;;;;;5070003;28;20032;-73
2021/03/07 05:26:10;;;;;;;14.00;8.75;;;1.50;63.70;;;;;;5069677;28;20029;-73
2021/03/07 05:28:36;;;;;;;15.65;9.80;;;1.60;63.50;;;;;;5070033;28;20449;-74
2021/03/07 05:31:02;;;;;;;21.98;12.60;;;1.60;63.30;;;;;;5069242;28;20033;-73
2021/03/07 05:33:28;;;;;;;22.35;12.73;;;1.70;63.10;;;;;;5070065;28;20024;-73
2021/03/07 05:35:53;;;;;;;22.55;12.90;;;1.70;62.80;;;;;;5070574;28;20490;-74
2021/03/07 05:38:20;;;;;;;19.70;10.65;;;1.70;62.50;;;;;;5070819;28;20032;-73
2021/03/07 05:40:45;;;;;;;17.80;10.77;;;1.80;62.40;;;;;;5070181;28;20029;-73
2021/03/07 05:43:11;;;;;;;16.08;10.25;;;1.80;62.40;;;;;;5070214;28;20028;-73
2021/03/07 05:45:37;;;;;;;19.48;12.45;;;1.80;62.30;;;;;;5070060;28;20027;-74
2021/03/07 05:48:03;;;;;;;18.38;11.63;;;1.80;62.50;;;;;;5051109;28;20072;-73
2021/03/07 05:50:29;;;;;;;18.75;11.93;;;1.80;63.90;;;;;;5064670;28;20033;-73
2021/03/07 05:52:57;;;;;;;20.95;13.57;;;1.70;65.00;;;;;;5064393;28;20037;-74
2021/03/07 05:55:27;;;;;;;21.63;13.32;;;1.80;65.40;;;;;;5065551;28;20124;-73
2021/03/07 05:57:57;;;;;;;22.85;13.60;;;1.80;65.80;;;;;;5059019;28;20090;-73
2021/03/07 06:00:23;;;;;;;17.83;12.00;;;1.90;66.20;;;;;;5057897;28;20032;-73
2021/03/07 06:02:49;;;;;;;21.65;12.60;;;1.80;66.10;;;;;;5057953;28;20029;-74
2021/03/07 06:05:15;;;;;;;21.38;12.95;;;1.80;66.50;;;;;;5056951;28;20155;-73
2021/03/07 06:07:42;;;;;;;21.05;12.63;;;1.80;66.70;;;;;;5059836;28;20013;-74
2021/03/07 06:10:14;;;;;;;21.67;13.63;;;1.80;66.90;;;;;;5063658;28;20033;-73
2021/03/07 06:12:41;;;;;;;22.95;14.05;;;1.80;67.20;;;;;;5046881;28;20052;-73
2021/03/07 06:15:08;;;;;;;24.02;13.80;;;1.80;67.70;;;;;;5066322;28;20073;-73
2021/03/07 06:17:41;;;;;;;23.25;14.10;;;1.90;67.70;;;;;;5066124;28;20040;-72
2021/03/07 06:20:09;;;;;;;23.55;13.77;;;1.80;67.80;;;;;;5067729;28;20025;-73
2021/03/07 06:22:36;;;;;;;22.08;13.35;;;1.90;67.90;;;;;;5067381;28;20047;-73
2021/03/07 06:25:05;;;;;;;24.55;14.63;;;1.90;68.00;;;;;;5069250;28;20033;-73
2021/03/07 06:27:31;;;;;;;32.13;16.85;;;1.80;68.40;;;;;;5068134;28;20021;-73
2021/03/07 06:30:19;;;;;;;35.40;16.48;;;1.90;68.60;;;;;;5063549;28;20075;-73
2021/03/07 06:32:59;;;;;;;36.25;16.80;;;1.80;68.50;;;;;;5067483;28;20037;-73
2021/03/07 06:35:31;;;;;;;23.50;14.48;;;1.70;69.00;;;;;;5068799;28;20017;-73
2021/03/07 06:38:08;;;;;;;20.75;13.15;;;1.80;69.00;;;;;;5069335;28;20075;-73
2021/03/07 06:40:42;;;;;;;24.75;14.20;;;1.90;69.30;;;;;;5066445;28;20017;-72
2021/03/07 06:43:23;;;;;;;18.75;11.85;;;1.90;69.50;;;;;;5066254;28;20032;-73
2021/03/07 06:45:49;;;;;;;22.85;13.93;;;2.00;69.50;;;;;;5070747;28;20033;-73
2021/03/07 06:48:15;;;;;;;23.45;14.15;;;2.10;69.40;;;;;;5067271;28;20060;-73
2021/03/07 06:50:56;;;;;;;23.48;15.00;;;2.10;69.50;;;;;;5063593;28;20113;-73
2021/03/07 06:53:33;;;;;;;26.83;16.33;;;2.30;69.50;;;;;;5064121;28;20089;-73
2021/03/07 06:55:58;;;;;;;21.73;14.20;;;2.30;69.10;;;;;;5068703;28;20054;-74
2021/03/07 06:58:25;;;;;;;22.08;14.30;;;2.30;68.90;;;;;;5060960;28;20028;-72
2021/03/07 07:00:51;;;;;;;21.00;13.10;;;2.30;69.10;;;;;;5059282;28;20024;-73
2021/03/07 07:03:17;;;;;;;24.10;13.77;;;2.40;69.00;;;;;;5060778;28;20481;-73
2021/03/07 07:05:47;;;;;;;25.77;15.68;;;2.50;68.70;;;;;;5067728;28;20081;-73
2021/03/07 07:08:15;;;;;;;24.05;14.48;;;2.60;68.40;;;;;;5042124;28;20048;-73
2021/03/07 07:10:59;;;;;;;22.90;14.38;;;2.70;68.40;;;;;;5058518;28;20080;-74
2021/03/07 07:13:29;;;;;;;23.35;14.57;;;2.90;68.20;;;;;;5055942;28;20041;-74
2021/03/07 07:15:59;;;;;;;23.80;15.05;;;3.00;67.80;;;;;;5055126;28;20029;-72
2021/03/07 07:18:25;;;;;;;24.13;15.15;;;3.20;67.40;;;;;;5054770;28;20071;-74
2021/03/07 07:20:55;;;;;;;28.88;15.05;;;3.40;66.90;;;;;;5055532;28;20017;-73
2021/03/07 07:23:21;;;;;;;25.55;15.30;;;3.50;66.50;;;;;;5054743;28;20025;-73
2021/03/07 07:25:47;;;;;;;23.85;14.63;;;3.70;66.00;;;;;;5054756;28;20416;-72
2021/03/07 07:28:13;;;;;;;25.27;15.32;;;3.80;65.60;;;;;;5054397;28;20044;-72
2021/03/07 07:30:39;;;;;;;29.98;15.52;;;3.90;65.10;;;;;;5054658;28;20029;-75
2021/03/07 07:33:16;;;;;;;26.80;15.95;;;4.00;64.90;;;;;;5056008;28;20032;-73
2021/03/07 07:35:43;;;;;;;25.55;15.95;;;4.20;64.30;;;;;;5054289;28;20021;-75
2021/03/07 07:38:12;;;;;;;25.75;16.73;;;4.20;63.90;;;;;;5054246;28;20203;-74
2021/03/07 07:40:44;;;;;;;26.58;16.55;;;4.30;63.80;;;;;;5037249;28;20021;-74
2021/03/07 07:43:10;;;;;;;25.25;16.48;;;4.40;63.40;;;;;;5057489;28;20028;-74
2021/03/07 07:45:37;;;;;;;22.75;14.57;;;4.60;63.00;;;;;;5046350;28;20025;-73
2021/03/07 07:48:04;;;;;;;26.70;16.23;;;4.60;62.60;;;;;;5060691;28;20021;-74
2021/03/07 07:50:29;;;;;;;22.10;14.80;;;4.70;62.30;;;;;;5059196;28;20044;-74
2021/03/07 07:53:02;;;;;;;23.20;14.75;;;4.80;61.90;;;;;;5059791;28;20024;-74
2021/03/07 07:55:48;;;;;;;22.23;15.05;;;4.90;62.40;;;;;;5060531;28;20056;-73
2021/03/07 07:58:35;;;;;;;25.42;15.32;;;4.90;61.40;;;;;;5061649;28;20029;-74
2021/03/07 08:01:02;;;;;;;25.33;16.15;;;5.00;61.50;;;;;;5055584;28;20409;-73
2021/03/07 08:03:36;;;;;;;24.75;16.40;;;5.00;61.80;;;;;;5038393;28;20021;-73
2021/03/07 08:06:09;;;;;;;26.33;13.68;;;5.00;61.80;;;;;;5054850;28;20047;-76
2021/03/07 08:08:40;;;;;;;21.75;13.80;;;5.50;70.00;;;;;;5036032;28;20496;-75
2021/03/07 08:11:07;;;;;;;27.27;16.35;;;6.00;70.40;;;;;;5053519;28;20469;-72
2021/03/07 08:13:33;;;;;;;19.50;12.07;;;6.40;66.20;;;;;;5053775;28;20446;-73
2021/03/07 08:16:03;;;;;;;18.98;13.00;;;6.80;67.10;;;;;;5037961;28;20033;-74
2021/03/07 08:18:45;;;;;;;17.67;12.73;;;7.50;65.50;;;;;;5036766;28;20026;-74
2021/03/07 08:21:11;;;;;;;15.85;11.48;;;8.00;61.00;;;;;;5037012;28;20021;-72
2021/03/07 08:24:00;;;;;;;20.02;14.00;;;8.30;58.60;;;;;;5035237;28;20039;-75
2021/03/07 08:26:47;;;;;;;19.42;12.70;;;8.50;54.50;;;;;;5035271;28;20033;-74
2021/03/07 08:30:01;;;;;;;18.65;11.85;;;8.60;54.40;;;;;;5054921;28;20025;-74
2021/03/07 08:32:29;;;;;;;15.82;10.65;;;9.00;53.00;;;;;;5034033;28;20049;-74
2021/03/07 08:35:00;;;;;;;14.55;10.20;;;9.50;52.20;;;;;;5055336;28;20022;-74
2021/03/07 08:37:27;;;;;;;13.85;8.85;;;9.80;50.50;;;;;;5054836;28;20155;-74
2021/03/07 08:40:29;;;;;;;15.00;10.60;;;9.90;50.10;;;;;;5055406;28;20104;-75
2021/03/07 08:42:56;;;;;;;14.23;9.93;;;10.30;49.00;;;;;;5057678;28;20021;-74
2021/03/07 08:45:23;;;;;;;20.05;12.57;;;10.30;47.60;;;;;;5055981;28;20029;-73
2021/03/07 08:47:57;;;;;;;14.57;10.80;;;10.60;46.40;;;;;;5056010;28;20032;-73
2021/03/07 08:50:24;;;;;;;19.05;12.52;;;10.60;45.70;;;;;;5039080;28;20029;-75
2021/03/07 08:52:50;;;;;;;16.58;10.82;;;10.80;45.50;;;;;;5058338;28;20029;-73
2021/03/07 08:55:16;;;;;;;13.85;10.07;;;10.90;45.40;;;;;;5058888;28;20545;-72
2021/03/07 08:57:49;;;;;;;17.08;11.70;;;11.10;45.30;;;;;;5058286;28;20426;-72
2021/03/07 09:00:17;;;;;;;22.27;14.77;;;11.00;44.50;;;;;;5059114;28;20025;-72
2021/03/07 09:02:44;;;;;;;17.67;12.38;;;11.10;44.50;;;;;;5057922;28;20349;-73
2021/03/07 09:05:26;;;;;;;19.27;12.98;;;10.90;44.30;;;;;;5041623;28;20029;-73
2021/03/07 09:07:59;;;;;;;19.23;14.07;;;11.00;45.20;;;;;;5065843;28;20024;-73
2021/03/07 09:10:30;;;;;;;22.42;14.60;;;11.00;45.30;;;;;;5050621;28;20063;-73
2021/03/07 09:13:04;;;;;;;20.75;15.45;;;11.00;45.10;;;;;;5063091;28;20513;-73
2021/03/07 09:15:30;;;;;;;20.40;15.35;;;10.70;45.20;;;;;;5061373;28;20132;-73
2021/03/07 09:17:56;;;;;;;20.75;13.63;;;10.70;45.80;;;;;;5060317;28;20032;-73
2021/03/07 09:20:21;;;;;;;22.98;14.57;;;10.40;46.00;;;;;;5043396;28;20067;-73
2021/03/07 09:22:47;;;;;;;20.23;14.13;;;10.60;46.40;;;;;;5061907;28;20024;-74
2021/03/07 09:25:15;;;;;;;19.30;12.38;;;10.70;46.40;;;;;;5063821;28;20021;-73
2021/03/07 09:27:42;;;;;;;18.40;12.77;;;10.80;46.60;;;;;;5064472;28;20021;-73
2021/03/07 09:30:10;;;;;;;23.27;16.33;;;11.00;46.30;;;;;;5065730;28;20034;-75
2021/03/07 09:32:43;;;;;;;21.75;14.15;;;11.00;45.00;;;;;;5064397;28;20039;-73
2021/03/07 09:35:20;;;;;;;22.45;15.65;;;11.00;45.20;;;;;;5065795;28;20025;-73
2021/03/07 09:37:59;;;;;;;24.50;16.90;;;11.00;44.90;;;;;;5067263;28;20025;-73
2021/03/07 09:40:27;;;;;;;19.33;12.95;;;11.10;45.00;;;;;;5068088;28;20017;-73
2021/03/07 09:42:56;;;;;;;28.77;17.75;;;11.00;45.10;;;;;;5070515;28;20064;-74
2021/03/07 09:45:22;;;;;;;31.35;19.23;;;10.90;45.10;;;;;;5048179;28;20135;-72
2021/03/07 09:47:49;;;;;;;25.35;17.20;;;10.90;45.70;;;;;;5060616;28;20029;-75
2021/03/07 09:50:15;;;;;;;26.15;16.63;;;11.00;46.30;;;;;;5059536;28;20032;-74
2021/03/07 09:52:43;;;;;;;24.98;16.15;;;11.20;46.30;;;;;;5057625;28;20029;-72
2021/03/07 09:55:09;;;;;;;24.67;16.15;;;11.50;46.00;;;;;;5059335;28;20017;-73
2021/03/07 09:57:37;;;;;;;22.38;14.38;;;11.90;45.10;;;;;;5058120;28;20061;-72
2021/03/07 10:00:04;;;;;;;32.72;17.08;;;11.80;44.80;;;;;;5056560;28;20079;-72
2021/03/07 10:02:36;;;;;;;25.52;15.18;;;11.90;44.20;;;;;;5058098;28;20511;-71
2021/03/07 10:05:13;;;;;;;27.17;16.35;;;11.70;44.00;;;;;;5056658;28;20381;-72
2021/03/07 10:07:38;;;;;;;22.00;14.52;;;12.00;44.00;;;;;;5061161;28;20025;-72
2021/03/07 10:10:15;;;;;;;19.77;12.90;;;12.20;43.30;;;;;;5062266;28;20354;-72
2021/03/07 10:12:58;;;;;;;22.98;13.32;;;12.50;42.90;;;;;;5061341;28;20056;-71
2021/03/07 10:15:28;;;;;;;29.17;17.70;;;12.80;42.10;;;;;;5057001;28;20075;-72
2021/03/07 10:17:59;;;;;;;27.88;15.98;;;12.40;41.60;;;;;;5057424;28;20057;-73
2021/03/07 10:20:32;;;;;;;23.05;16.00;;;12.30;41.40;;;;;;5056605;28;20470;-74
2021/03/07 10:22:59;;;;;;;25.63;15.93;;;12.40;41.60;;;;;;5056294;28;20070;-74
2021/03/07 10:25:25;;;;;;;19.98;13.07;;;12.60;41.60;;;;;;5057260;28;20036;-74
2021/03/07 10:28:05;;;;;;;24.65;13.20;;;12.60;41.30;;;;;;5058582;28;20025;-74
2021/03/07 10:30:39;;;;;;;21.98;14.40;;;13.10;41.40;;;;;;5058426;28;20025;-74
2021/03/07 10:33:34;;;;;;;21.45;14.50;;;13.20;40.70;;;;;;5059761;28;20044;-73
2021/03/07 10:36:19;;;;;;;21.70;14.18;;;13.30;40.30;;;;;;5054325;28;20091;-73
2021/03/07 10:38:48;;;;;;;22.02;13.55;;;13.30;40.00;;;;;;5059993;28;20398;-73
2021/03/07 10:41:24;;;;;;;27.10;14.73;;;13.60;40.00;;;;;;5059164;28;20031;-73
2021/03/07 10:44:01;;;;;;;21.17;12.40;;;12.90;39.90;;;;;;5042180;28;20037;-73
2021/03/07 10:46:28;;;;;;;18.63;12.52;;;13.10;40.60;;;;;;5059686;28;20044;-73
2021/03/07 10:48:56;;;;;;;21.65;13.70;;;13.30;40.50;;;;;;5061009;28;20032;-73
2021/03/07 10:51:22;;;;;;;19.23;12.73;;;13.40;39.90;;;;;;5060002;28;20032;-73
2021/03/07 10:53:48;;;;;;;24.98;15.07;;;13.60;39.80;;;;;;5059538;28;20120;-73
2021/03/07 10:56:13;;;;;;;23.83;14.95;;;13.80;39.30;;;;;;5059744;28;20029;-73
2021/03/07 10:58:39;;;;;;;24.17;14.85;;;13.60;38.80;;;;;;5059502;28;20151;-74
2021/03/07 11:01:04;;;;;;;23.95;14.95;;;13.40;38.70;;;;;;5062955;28;20064;-73
2021/03/07 11:03:30;;;;;;;23.80;13.93;;;13.70;38.90;;;;;;5061906;28;20028;-75
2021/03/07 11:05:56;;;;;;;25.38;16.00;;;13.50;38.60;;;;;;5061347;28;20040;-73
2021/03/07 11:08:22;;;;;;;20.95;14.90;;;13.70;38.60;;;;;;5060337;28;20104;-75
2021/03/07 11:10:48;;;;;;;23.75;14.73;;;13.80;38.20;;;;;;5059025;28;20071;-74
2021/03/07 11:13:13;;;;;;;24.88;14.60;;;14.00;37.90;;;;;;5058933;28;20589;-76
2021/03/07 11:15:39;;;;;;;22.45;13.93;;;13.80;38.10;;;;;;5059881;28;20033;-76
2021/03/07 11:18:05;;;;;;;27.08;14.35;;;13.70;38.10;;;;;;5060287;28;20482;-74
2021/03/07 11:20:30;;;;;;;19.85;13.27;;;13.90;37.90;;;;;;5060236;28;20092;-76
2021/03/07 11:22:56;;;;;;;22.08;15.63;;;13.70;38.20;;;;;;5059245;28;20055;-74
2021/03/07 11:25:21;;;;;;;19.08;13.50;;;13.80;38.20;;;;;;5057545;28;20096;-77
2021/03/07 11:27:48;;;;;;;20.42;13.48;;;13.80;38.20;;;;;;5041827;28;20086;-75
2021/03/07 11:30:14;;;;;;;20.92;13.90;;;13.90;38.10;;;;;;5059826;28;20025;-75
2021/03/07 11:32:40;;;;;;;23.50;14.20;;;14.00;37.60;;;;;;5059509;28;20025;-79
2021/03/07 11:35:06;;;;;;;20.77;13.73;;;13.70;37.90;;;;;;5059545;28;20021;-75
2021/03/07 11:37:31;;;;;;;20.23;13.98;;;13.80;37.90;;;;;;5069368;28;20020;-75
2021/03/07 11:39:57;;;;;;;23.60;14.43;;;13.80;37.90;;;;;;5073112;28;20021;-75
2021/03/07 11:42:22;;;;;;;20.58;14.13;;;13.60;38.00;;;;;;5065576;28;20025;-75
2021/03/07 11:44:48;;;;;;;19.05;12.93;;;13.80;38.10;;;;;;5044950;28;20470;-75
2021/03/07 11:47:13;;;;;;;18.80;13.07;;;13.60;37.50;;;;;;5058150;28;20036;-75
2021/03/07 11:49:41;;;;;;;18.77;12.77;;;14.10;37.20;;;;;;5058458;28;20044;-76
2021/03/07 11:52:07;;;;;;;20.00;12.88;;;14.40;36.20;;;;;;5059549;28;20092;-75
2021/03/07 11:54:32;;;;;;;22.98;13.23;;;14.90;35.70;;;;;;5058802;28;20049;-77
2021/03/07 11:56:58;;;;;;;23.42;13.70;;;14.60;35.00;;;;;;5055576;28;20032;-74
2021/03/07 11:59:23;;;;;;;18.33;12.10;;;13.80;35.50;;;;;;5055245;28;20032;-72
2021/03/07 12:01:49;;;;;;;19.73;12.30;;;14.10;36.10;;;;;;5054995;28;20052;-74
2021/03/07 12:04:14;;;;;;;18.38;12.48;;;14.40;35.70;;;;;;5036549;28;20036;-72
2021/03/07 12:06:40;;;;;;;18.58;12.23;;;14.30;35.50;;;;;;5052613;28;20029;-76
2021/03/07 12:09:06;;;;;;;24.27;13.48;;;14.30;35.90;;;;;;5052912;28;20029;-75
2021/03/07 12:11:31;;;;;;;17.70;12.15;;;14.40;35.20;;;;;;5052375;28;20041;-76
2021/03/07 12:13:57;;;;;;;21.73;13.52;;;14.60;35.20;;;;;;5054785;28;20497;-74
2021/03/07 12:16:23;;;;;;;24.38;12.95;;;14.70;34.90;;;;;;5056619;28;20025;-73
2021/03/07 12:18:48;;;;;;;23.98;13.90;;;14.80;34.70;;;;;;5041178;28;20474;-73
2021/03/07 12:21:14;;;;;;;23.88;13.05;;;15.20;34.40;;;;;;5059044;28;20477;-75
2021/03/07 12:23:40;;;;;;;17.77;12.45;;;14.70;34.60;;;;;;5059208;28;20025;-73
2021/03/07 12:26:05;;;;;;;17.45;12.40;;;14.90;34.80;;;;;;5058732;28;20108;-74
2021/03/07 12:28:32;;;;;;;19.45;12.23;;;14.90;34.60;;;;;;5059375;28;20143;-73
2021/03/07 12:30:59;;;;;;;23.10;13.02;;;15.30;34.10;;;;;;5058171;28;20057;-73
2021/03/07 12:33:25;;;;;;;23.38;13.65;;;14.80;34.00;;;;;;5058654;28;20428;-73
2021/03/07 12:35:50;;;;;;;19.52;13.32;;;14.30;34.40;;;;;;5058914;28;20021;-73
2021/03/07 12:38:16;;;;;;;20.20;13.93;;;13.70;35.10;;;;;;5058436;28;20028;-75
2021/03/07 12:40:41;;;;;;;22.13;13.73;;;13.50;36.00;;;;;;5059096;28;20079;-76
2021/03/07 12:43:07;;;;;;;19.73;13.00;;;13.50;36.90;;;;;;5058687;28;20024;-74
2021/03/07 12:45:32;;;;;;;22.55;13.13;;;13.70;36.90;;;;;;5059283;28;20470;-74